Darstellungsparameter: Aktuell verwendete Einstellungen:
Skalierung der Graphiken ... ?
xyx+y,   Skalierungsfaktor:      Skalierung: Modus: x, Faktor: 1
Darstellungszeitraum ... ?
Vom - - bis: - -   Zeitraum: 11.11.2007 - 17.11.2007
Min/Max/Avg-Anzeige ... ?
Zeige MMA aktuell
Zeige MMA Monat
Zeige MMA alles
Zeige --A aktuell
Zeige --A Monat
Zeige --A alles
Keine MMA-Anzeige
MMA:
Average (ber die Originaldaten)
MMA-Basis: 17.04.2019 - 19.05.2019
Quicknavigation für Darstellung... ?
Tage:      1T, 2T, 3T, 5T -1T -2T -3T -5T +1T +2T +3T +5T
Wochen: 1W, 2W, 3W -1W -2W -3W +1W +2W +3W
Monate: 1M, 3M, 6M -1M -3M -6M +1M +3M +6M
Jahre:    1J, 3J, 5J, 10J -1J -3J -5J -10J +1J +3J +5J +10J
Nutze für die Darstellung ... ?
Originaldaten oder Mittelwerte auf ...
Stundenbasis Tagesbasis Wochenbasis
Monatsbasis Jahresbasis      Datenbasis: Original-Daten
Darstellen als:
Statistik (Auto) Statistik J:M      Darstellung:
Zur Graphik,    zurück zur Übersicht aller Sensoren.
 
Tabellarische Datenbersicht: ?
 
Sensor: Nr:Datum:Temp:Abs-Feuchte:Windchill:Wind:
Aussen-T/F 1 11-11-2007 00:06:03 6.4 C 6.93 g/m*3 6.4 C 0 km/h
2 11-11-2007 00:18:02 6.5 C 6.97 g/m*3 6.5 C 0 km/h
3 11-11-2007 00:30:02 6.4 C 6.93 g/m*3 6.4 C 0 km/h
4 11-11-2007 00:42:02 6.6 C 7.02 g/m*3 6.6 C 0 km/h
5 11-11-2007 00:54:02 6.6 C 7.1 g/m*3 6.6 C 0 km/h
6 11-11-2007 01:06:01 6.8 C 7.19 g/m*3 6.8 C 0 km/h
7 11-11-2007 01:18:01 6.9 C 7.31 g/m*3 6.9 C 0 km/h
8 11-11-2007 01:30:01 7 C 7.28 g/m*3 7 C 0 km/h
9 11-11-2007 01:42:01 7.1 C 7.41 g/m*3 7.1 C 0 km/h
10 11-11-2007 01:54:02 7.2 C 7.46 g/m*3 7.2 C 0 km/h
11 11-11-2007 02:06:02 7.5 C 7.6 g/m*3 7.5 C 0 km/h
12 11-11-2007 02:18:02 7.7 C 7.7 g/m*3 7.7 C 0 km/h
13 11-11-2007 02:30:02 7.8 C 7.75 g/m*3 7.8 C 0 km/h
14 11-11-2007 02:42:02 8.1 C 7.9 g/m*3 8.1 C 0 km/h
15 11-11-2007 02:55:03 8.5 C 8.11 g/m*3 8.5 C 0 km/h
16 11-11-2007 03:07:03 8.7 C 8.22 g/m*3 8.7 C 0 km/h
17 11-11-2007 03:19:04 8.7 C 8.22 g/m*3 8.7 C 0 km/h
18 11-11-2007 03:31:01 8.9 C 8.32 g/m*3 8.9 C 0 km/h
19 11-11-2007 03:43:01 9 C 8.2 g/m*3 9 C 0 km/h
20 11-11-2007 03:55:01 9.1 C 8.07 g/m*3 9.1 C 0 km/h
21 11-11-2007 04:07:01 9.4 C 7.78 g/m*3 9.4 C 0 km/h
22 11-11-2007 04:19:01 9.3 C 7.46 g/m*3 9.3 C 0 km/h
23 11-11-2007 04:31:02 9.3 C 7.37 g/m*3 9.3 C 0 km/h
24 11-11-2007 04:43:02 9.2 C 7.32 g/m*3 9.2 C 0 km/h
25 11-11-2007 04:55:02 9.6 C 7.33 g/m*3 9.6 C 0 km/h
Sensor: Nr:Datum:Temp:Abs-Feuchte:Windchill:Wind:
Aussen-T/F 26 11-11-2007 05:07:02 9.6 C 7.24 g/m*3 9.6 C 0 km/h
27 11-11-2007 05:19:01 9.6 C 7.24 g/m*3 9.6 C 0 km/h
28 11-11-2007 05:31:02 9.7 C 7.19 g/m*3 9.7 C 0 km/h
29 11-11-2007 05:43:02 9.8 C 7.14 g/m*3 9.8 C 0 km/h
30 11-11-2007 05:55:02 9.7 C 7.19 g/m*3 9.7 C 0 km/h
31 11-11-2007 06:07:02 9.4 C 7.24 g/m*3 9.4 C 0 km/h
32 11-11-2007 06:19:02 9.4 C 7.33 g/m*3 9.4 C 0 km/h
33 11-11-2007 06:31:02 9.4 C 7.33 g/m*3 9.4 C 0 km/h
34 11-11-2007 06:43:02 9.7 C 7.28 g/m*3 9.7 C 0 km/h
35 11-11-2007 06:55:01 9.7 C 7.28 g/m*3 9.7 C 0 km/h
36 11-11-2007 07:07:02 9.8 C 7.14 g/m*3 9.8 C 0 km/h
37 11-11-2007 07:19:01 9.9 C 7 g/m*3 9.9 C 0 km/h
38 11-11-2007 07:31:02 9.9 C 7 g/m*3 9.9 C 0 km/h
39 11-11-2007 07:43:02 9.9 C 7 g/m*3 9.9 C 0 km/h
40 11-11-2007 07:55:02 9.9 C 7 g/m*3 9.9 C 0 km/h
41 11-11-2007 08:07:02 9.9 C 7 g/m*3 9.9 C 0 km/h
42 11-11-2007 08:19:02 9.9 C 7 g/m*3 9.9 C 0 km/h
43 11-11-2007 08:31:02 10 C 6.86 g/m*3 10 C 0 km/h
44 11-11-2007 08:43:02 9.8 C 6.96 g/m*3 9.8 C 0 km/h
45 11-11-2007 08:55:03 9.4 C 7.15 g/m*3 9.4 C 0 km/h
46 11-11-2007 09:07:03 9.2 C 7.23 g/m*3 9.2 C 0 km/h
47 11-11-2007 09:19:02 9.3 C 7.28 g/m*3 9.3 C 0 km/h
48 11-11-2007 09:31:02 9.4 C 7.24 g/m*3 9.4 C 0 km/h
49 11-11-2007 09:43:02 9.4 C 7.33 g/m*3 9.4 C 0 km/h
50 11-11-2007 09:55:02 9.7 C 7.28 g/m*3 9.7 C 0 km/h
Sensor: Nr:Datum:Temp:Abs-Feuchte:Windchill:Wind:
Aussen-T/F 51 11-11-2007 10:07:01 10 C 7.05 g/m*3 10 C 0 km/h
52 11-11-2007 10:19:01 10.2 C 7.04 g/m*3 10.2 C 0 km/h
53 11-11-2007 10:31:01 10.2 C 6.95 g/m*3 10.2 C 0 km/h
54 11-11-2007 10:43:01 10.4 C 7.04 g/m*3 10.4 C 0 km/h
55 11-11-2007 10:55:02 9.9 C 7.28 g/m*3 9.9 C 0 km/h
56 11-11-2007 11:07:02 9.7 C 7.38 g/m*3 9.7 C 0 km/h
57 11-11-2007 11:19:02 9.6 C 7.51 g/m*3 9.6 C 0 km/h
58 11-11-2007 11:31:02 9.5 C 7.55 g/m*3 9.5 C 0 km/h
59 11-11-2007 11:43:02 9.2 C 7.5 g/m*3 9.2 C 0 km/h
60 11-11-2007 11:55:02 9.2 C 7.23 g/m*3 9.2 C 0 km/h
61 11-11-2007 12:07:02 9.3 C 6.65 g/m*3 9.3 C 0 km/h
62 11-11-2007 12:19:02 9.2 C 6.52 g/m*3 9.2 C 0 km/h
63 11-11-2007 12:31:01 9.3 C 6.47 g/m*3 9.3 C 0 km/h
64 11-11-2007 12:43:01 9.6 C 6.41 g/m*3 9.6 C 0 km/h
65 11-11-2007 12:55:02 9.9 C 6.44 g/m*3 9.9 C 0 km/h
66 11-11-2007 13:07:02 10.3 C 6.42 g/m*3 10.3 C 0 km/h
67 11-11-2007 13:19:02 10.4 C 6.46 g/m*3 10.4 C 0 km/h
68 11-11-2007 13:31:02 10.4 C 6.36 g/m*3 10.4 C 0 km/h
69 11-11-2007 13:43:02 10.4 C 6.36 g/m*3 10.4 C 0 km/h
70 11-11-2007 13:55:02 10.6 C 6.25 g/m*3 10.6 C 0 km/h
71 11-11-2007 14:07:02 11.1 C 6.25 g/m*3 11.1 C 0 km/h
72 11-11-2007 14:19:02 9.3 C 6.02 g/m*3 9.3 C 0 km/h
73 11-11-2007 14:31:02 8.1 C 6.57 g/m*3 8.1 C 0 km/h
74 11-11-2007 14:43:02 7.8 C 6.69 g/m*3 7.8 C 0 km/h
75 11-11-2007 14:55:01 7.5 C 6.72 g/m*3 7.5 C 0 km/h
Sensor: Nr:Datum:Temp:Abs-Feuchte:Windchill:Wind:
Aussen-T/F 76 11-11-2007 15:07:02 7.9 C 6.9 g/m*3 7.9 C 0 km/h
77 11-11-2007 15:19:02 8.8 C 6.96 g/m*3 8.8 C 0 km/h
78 11-11-2007 15:31:02 8.4 C 6.7 g/m*3 8.4 C 0 km/h
79 11-11-2007 15:43:02 8 C 6.7 g/m*3 8 C 0 km/h
80 11-11-2007 15:55:02 7.5 C 6.56 g/m*3 7.5 C 0 km/h
81 11-11-2007 16:07:02 7.1 C 6.4 g/m*3 7.1 C 0 km/h
82 11-11-2007 16:19:02 6.7 C 6.38 g/m*3 6.7 C 0 km/h
83 11-11-2007 16:31:02 6.8 C 6.42 g/m*3 6.8 C 0 km/h
84 11-11-2007 16:43:02 6.9 C 6.47 g/m*3 6.9 C 0 km/h
85 11-11-2007 16:55:02 6.7 C 6.23 g/m*3 6.7 C 0 km/h
86 11-11-2007 17:07:02 6.4 C 6.11 g/m*3 6.4 C 0 km/h
87 11-11-2007 17:19:02 6.5 C 6.07 g/m*3 6.5 C 0 km/h
88 11-11-2007 17:31:01 6.2 C 6.03 g/m*3 6.2 C 0 km/h
89 11-11-2007 17:43:01 6 C 6.02 g/m*3 6 C 0 km/h
90 11-11-2007 17:55:02 6 C 6.1 g/m*3 6 C 0 km/h
91 11-11-2007 18:07:02 6.2 C 6.1 g/m*3 6.2 C 0 km/h
92 11-11-2007 18:19:01 5.9 C 5.98 g/m*3 5.9 C 0 km/h
93 11-11-2007 18:31:02 5.5 C 5.83 g/m*3 5.5 C 0 km/h
94 11-11-2007 18:43:02 5.2 C 5.71 g/m*3 5.2 C 0 km/h
95 11-11-2007 18:55:02 5.4 C 5.86 g/m*3 5.4 C 0 km/h
96 11-11-2007 19:07:02 5.6 C 5.87 g/m*3 5.6 C 0 km/h
97 11-11-2007 19:19:01 5.7 C 5.84 g/m*3 5.7 C 0 km/h
98 11-11-2007 19:31:02 5.7 C 5.76 g/m*3 5.7 C 0 km/h
99 11-11-2007 19:43:02 5.6 C 5.59 g/m*3 5.6 C 0 km/h
100 11-11-2007 19:55:01 5.2 C 5.51 g/m*3 5.2 C 0 km/h
Sensor: Nr:Datum:Temp:Abs-Feuchte:Windchill:Wind:
Aussen-T/F 101 11-11-2007 20:07:01 4.9 C 5.6 g/m*3 4.9 C 0 km/h
102 11-11-2007 20:19:02 4.9 C 5.67 g/m*3 4.9 C 0 km/h
103 11-11-2007 20:31:02 4.9 C 5.67 g/m*3 4.9 C 0 km/h
104 11-11-2007 20:43:02 4.9 C 5.54 g/m*3 4.9 C 0 km/h
105 11-11-2007 20:55:02 4.3 C 5.38 g/m*3 4.3 C 0 km/h
106 11-11-2007 21:07:02 3.8 C 5.4 g/m*3 3.8 C 0 km/h
107 11-11-2007 21:19:02 3.7 C 5.42 g/m*3 3.7 C 0 km/h
108 11-11-2007 21:31:02 3.9 C 5.56 g/m*3 3.9 C 0 km/h
109 11-11-2007 21:43:02 4 C 5.59 g/m*3 4 C 0 km/h
110 11-11-2007 21:55:02 4.1 C 5.63 g/m*3 4.1 C 0 km/h
111 11-11-2007 22:07:02 4.3 C 5.64 g/m*3 4.3 C 0 km/h
112 11-11-2007 22:19:02 4.3 C 5.51 g/m*3 4.3 C 0 km/h
113 11-11-2007 22:31:02 4.3 C 5.51 g/m*3 4.3 C 0 km/h
114 11-11-2007 22:43:02 4.6 C 5.62 g/m*3 4.6 C 0 km/h
115 11-11-2007 22:55:02 4.7 C 5.6 g/m*3 4.7 C 0 km/h
116 11-11-2007 23:07:02 4.5 C 5.46 g/m*3 4.5 C 0 km/h
117 11-11-2007 23:19:03 4.5 C 5.46 g/m*3 4.5 C 0 km/h
118 11-11-2007 23:31:03 4.5 C 5.39 g/m*3 4.5 C 0 km/h
119 11-11-2007 23:43:03 4.7 C 5.33 g/m*3 4.7 C 0 km/h
120 11-11-2007 23:55:02 4.6 C 5.29 g/m*3 4.6 C 0 km/h
121 12-11-2007 00:07:03 4.6 C 5.29 g/m*3 4.6 C 0 km/h
122 12-11-2007 00:19:03 4.4 C 5.16 g/m*3 4.4 C 0 km/h
123 12-11-2007 00:31:03 4.1 C 5.12 g/m*3 4.1 C 0 km/h
124 12-11-2007 00:43:03 4.1 C 5.18 g/m*3 4.1 C 0 km/h
125 12-11-2007 00:55:02 4.3 C 5.19 g/m*3 4.3 C 0 km/h
Sensor: Nr:Datum:Temp:Abs-Feuchte:Windchill:Wind:
Aussen-T/F 126 12-11-2007 01:07:02 4 C 5.09 g/m*3 4 C 0 km/h
127 12-11-2007 01:19:02 4.1 C 5.12 g/m*3 4.1 C 0 km/h
128 12-11-2007 01:31:02 4 C 5.15 g/m*3 4 C 0 km/h
129 12-11-2007 01:43:02 4 C 5.15 g/m*3 4 C 0 km/h
130 12-11-2007 01:55:02 4.2 C 5.15 g/m*3 4.2 C 0 km/h
131 12-11-2007 02:07:02 4.1 C 5.06 g/m*3 4.1 C 0 km/h
132 12-11-2007 02:19:01 3.9 C 5.05 g/m*3 3.9 C 0 km/h
133 12-11-2007 02:31:01 4 C 5.09 g/m*3 4 C 0 km/h
134 12-11-2007 02:43:01 4.1 C 5.06 g/m*3 4.1 C 0 km/h
135 12-11-2007 02:56:04 4 C 4.96 g/m*3 4 C 0 km/h
136 12-11-2007 03:08:04 3.6 C 4.95 g/m*3 3.6 C 0 km/h
137 12-11-2007 03:20:04 3.7 C 5.05 g/m*3 3.7 C 0 km/h
138 12-11-2007 03:32:01 3.3 C 4.91 g/m*3 3.3 C 0 km/h
139 12-11-2007 03:44:01 3.2 C 4.94 g/m*3 3.2 C 0 km/h
140 12-11-2007 03:56:01 3.3 C 5.04 g/m*3 3.3 C 0 km/h
141 12-11-2007 04:08:01 3.4 C 5.07 g/m*3 3.4 C 0 km/h
142 12-11-2007 04:20:02 3.6 C 5.08 g/m*3 3.6 C 0 km/h
143 12-11-2007 04:32:02 3.8 C 5.02 g/m*3 3.8 C 0 km/h
144 12-11-2007 04:44:02 3.9 C 4.93 g/m*3 3.9 C 0 km/h
145 12-11-2007 04:56:02 3.9 C 4.93 g/m*3 3.9 C 0 km/h
146 12-11-2007 05:08:02 4 C 4.9 g/m*3 4 C 0 km/h
147 12-11-2007 05:20:03 3.8 C 4.96 g/m*3 3.8 C 0 km/h
148 12-11-2007 05:32:03 3.7 C 4.92 g/m*3 3.7 C 0 km/h
149 12-11-2007 05:44:03 3.8 C 4.96 g/m*3 3.8 C 0 km/h
150 12-11-2007 05:56:03 3.6 C 4.89 g/m*3 3.6 C 0 km/h
Sensor: Nr:Datum:Temp:Abs-Feuchte:Windchill:Wind:
Aussen-T/F 151 12-11-2007 06:08:02 3.5 C 4.86 g/m*3 3.5 C 0 km/h
152 12-11-2007 06:20:02 3.5 C 4.92 g/m*3 3.5 C 0 km/h
153 12-11-2007 06:32:02 3.6 C 4.89 g/m*3 3.6 C 0 km/h
154 12-11-2007 06:44:02 3.5 C 4.86 g/m*3 3.5 C 0 km/h
155 12-11-2007 06:56:02 3.4 C 4.83 g/m*3 3.4 C 0 km/h
156 12-11-2007 07:08:02 3.6 C 4.95 g/m*3 3.6 C 0 km/h
157 12-11-2007 07:20:02 3.5 C 4.86 g/m*3 3.5 C 0 km/h
158 12-11-2007 07:32:02 3.3 C 4.79 g/m*3 3.3 C 0 km/h
159 12-11-2007 07:44:02 3.1 C 4.79 g/m*3 3.1 C 0 km/h
160 12-11-2007 07:56:02 2.9 C 4.84 g/m*3 2.9 C 0 km/h
161 12-11-2007 08:08:02 2.9 C 4.9 g/m*3 2.9 C 0 km/h
162 12-11-2007 08:20:02 2.9 C 4.9 g/m*3 2.9 C 0 km/h
163 12-11-2007 08:32:02 3 C 4.82 g/m*3 3 C 0 km/h
164 12-11-2007 08:44:02 3.1 C 4.79 g/m*3 3.1 C 0 km/h
165 12-11-2007 08:56:03 3.1 C 4.79 g/m*3 3.1 C 0 km/h
166 12-11-2007 09:08:03 3.2 C 4.76 g/m*3 3.2 C 0 km/h
167 12-11-2007 09:20:03 3.6 C 4.83 g/m*3 3.6 C 0 km/h
168 12-11-2007 09:32:03 4.1 C 4.74 g/m*3 4.1 C 0 km/h
169 12-11-2007 09:44:03 4.7 C 4.86 g/m*3 4.7 C 0 km/h
170 12-11-2007 09:56:02 5 C 4.82 g/m*3 5 C 0 km/h
171 12-11-2007 10:08:02 5.3 C 4.92 g/m*3 5.3 C 0 km/h
172 12-11-2007 10:20:02 5.2 C 4.82 g/m*3 5.2 C 0 km/h
173 12-11-2007 10:32:01 5.2 C 4.82 g/m*3 5.2 C 0 km/h
174 12-11-2007 10:44:01 5.3 C 4.85 g/m*3 5.3 C 0 km/h
175 12-11-2007 10:56:02 5.6 C 4.88 g/m*3 5.6 C 0 km/h
Sensor: Nr:Datum:Temp:Abs-Feuchte:Windchill:Wind:
Aussen-T/F 176 12-11-2007 11:08:02 6.2 C 4.93 g/m*3 6.2 C 0 km/h
177 12-11-2007 11:20:02 6.7 C 4.86 g/m*3 6.7 C 0 km/h
178 12-11-2007 11:32:02 6.6 C 4.83 g/m*3 6.6 C 0 km/h
179 12-11-2007 11:44:02 6.7 C 4.79 g/m*3 6.7 C 0 km/h
180 12-11-2007 11:56:02 6.9 C 4.7 g/m*3 6.9 C 0 km/h
181 12-11-2007 12:08:02 7.2 C 4.4 g/m*3 7.2 C 0 km/h
182 12-11-2007 12:20:02 7.2 C 4.24 g/m*3 7.2 C 0 km/h
183 12-11-2007 12:32:02 7.4 C 4.14 g/m*3 7.4 C 0 km/h
184 12-11-2007 12:44:02 7.5 C 4.16 g/m*3 7.5 C 0 km/h
185 12-11-2007 12:56:02 8 C 3.97 g/m*3 8 C 0 km/h
186 12-11-2007 13:08:02 8.1 C 3.99 g/m*3 8.1 C 0 km/h
187 12-11-2007 13:20:02 8 C 3.89 g/m*3 8 C 0 km/h
188 12-11-2007 13:32:02 8.1 C 3.91 g/m*3 8.1 C 0 km/h
189 12-11-2007 13:44:02 8.1 C 3.91 g/m*3 8.1 C 0 km/h
190 12-11-2007 13:56:01 8 C 3.97 g/m*3 8 C 0 km/h
191 12-11-2007 14:08:01 8.1 C 3.91 g/m*3 8.1 C 0 km/h
192 12-11-2007 14:20:02 8.1 C 3.99 g/m*3 8.1 C 0 km/h
193 12-11-2007 14:32:02 8.1 C 3.91 g/m*3 8.1 C 0 km/h
194 12-11-2007 14:44:02 8 C 3.97 g/m*3 8 C 0 km/h
195 12-11-2007 14:56:02 8.1 C 4.08 g/m*3 8.1 C 0 km/h
196 12-11-2007 15:08:02 8 C 3.97 g/m*3 8 C 0 km/h
197 12-11-2007 15:20:02 8 C 3.97 g/m*3 8 C 0 km/h
198 12-11-2007 15:32:02 7.8 C 4.08 g/m*3 7.8 C 0 km/h
199 12-11-2007 15:44:02 7.5 C 4 g/m*3 7.5 C 0 km/h
200 12-11-2007 15:56:02 7.2 C 3.92 g/m*3 7.2 C 0 km/h
Sensor: Nr:Datum:Temp:Abs-Feuchte:Windchill:Wind:
Aussen-T/F 201 12-11-2007 16:08:02 6.9 C 4 g/m*3 6.9 C 0 km/h
202 12-11-2007 16:20:02 7.1 C 3.98 g/m*3 7.1 C 0 km/h
203 12-11-2007 16:32:02 7 C 4.03 g/m*3 7 C 0 km/h
204 12-11-2007 16:44:02 7.1 C 4.06 g/m*3 7.1 C 0 km/h
205 12-11-2007 16:56:03 7.1 C 4.21 g/m*3 7.1 C 0 km/h
206 12-11-2007 17:08:03 6.6 C 4.6 g/m*3 6.6 C 0 km/h
207 12-11-2007 17:20:02 5.7 C 4.91 g/m*3 5.7 C 0 km/h
208 12-11-2007 17:32:02 5.2 C 5.16 g/m*3 5.2 C 0 km/h
209 12-11-2007 17:44:02 5 C 5.23 g/m*3 5 C 0 km/h
210 12-11-2007 17:56:02 4.8 C 5.36 g/m*3 4.8 C 0 km/h
211 12-11-2007 18:08:03 5.2 C 5.37 g/m*3 5.2 C 0 km/h
212 12-11-2007 18:20:02 5.7 C 5.12 g/m*3 5.7 C 0 km/h
213 12-11-2007 18:32:03 5.8 C 5.09 g/m*3 5.8 C 0 km/h
214 12-11-2007 18:44:03 5.8 C 4.94 g/m*3 5.8 C 0 km/h
215 12-11-2007 18:56:02 5.7 C 4.84 g/m*3 5.7 C 0 km/h
216 12-11-2007 19:08:03 5.8 C 4.94 g/m*3 5.8 C 0 km/h
217 12-11-2007 19:20:02 5.7 C 4.84 g/m*3 5.7 C 0 km/h
218 12-11-2007 19:32:02 5.4 C 4.88 g/m*3 5.4 C 0 km/h
219 12-11-2007 19:44:02 5.4 C 4.95 g/m*3 5.4 C 0 km/h
220 12-11-2007 19:56:02 5.5 C 4.92 g/m*3 5.5 C 0 km/h
221 12-11-2007 20:08:01 5.5 C 4.92 g/m*3 5.5 C 0 km/h
222 12-11-2007 20:20:01 5.5 C 4.85 g/m*3 5.5 C 0 km/h
223 12-11-2007 20:32:01 5.5 C 4.78 g/m*3 5.5 C 0 km/h
224 12-11-2007 20:44:01 5.3 C 4.85 g/m*3 5.3 C 0 km/h
225 12-11-2007 20:56:01 5.2 C 4.82 g/m*3 5.2 C 0 km/h
Sensor: Nr:Datum:Temp:Abs-Feuchte:Windchill:Wind:
Aussen-T/F 226 12-11-2007 21:08:02 5.2 C 4.82 g/m*3 5.2 C 0 km/h
227 12-11-2007 21:20:02 5.2 C 4.75 g/m*3 5.2 C 0 km/h
228 12-11-2007 21:32:02 5.2 C 4.75 g/m*3 5.2 C 0 km/h
229 12-11-2007 21:44:02 5.2 C 4.75 g/m*3 5.2 C 0 km/h
230 12-11-2007 21:56:01 5.2 C 4.68 g/m*3 5.2 C 0 km/h
231 12-11-2007 22:08:02 5 C 4.69 g/m*3 5 C 0 km/h
232 12-11-2007 22:20:02 4.8 C 4.69 g/m*3 4.8 C 0 km/h
233 12-11-2007 22:32:02 4.6 C 4.7 g/m*3 4.6 C 0 km/h
234 12-11-2007 22:44:02 4.5 C 4.73 g/m*3 4.5 C 0 km/h
235 12-11-2007 22:56:02 4.3 C 4.74 g/m*3 4.3 C 0 km/h
236 12-11-2007 23:08:02 4.3 C 4.74 g/m*3 4.3 C 0 km/h
237 12-11-2007 23:20:03 4.2 C 4.77 g/m*3 4.2 C 0 km/h
238 12-11-2007 23:32:02 4.2 C 4.77 g/m*3 4.2 C 0 km/h
239 12-11-2007 23:44:03 4.1 C 4.74 g/m*3 4.1 C 0 km/h
240 12-11-2007 23:56:02 4 C 4.7 g/m*3 4 C 0 km/h
241 13-11-2007 00:08:02 3.9 C 4.8 g/m*3 3.9 C 0 km/h
242 13-11-2007 00:20:02 4 C 4.77 g/m*3 4 C 0 km/h
243 13-11-2007 00:32:02 3.8 C 4.77 g/m*3 3.8 C 0 km/h
244 13-11-2007 00:44:02 3.6 C 4.77 g/m*3 3.6 C 0 km/h
245 13-11-2007 00:56:02 3.4 C 4.76 g/m*3 3.4 C 0 km/h
246 13-11-2007 01:08:02 3.7 C 4.86 g/m*3 3.7 C 0 km/h
247 13-11-2007 01:20:02 3.9 C 4.86 g/m*3 3.9 C 0 km/h
248 13-11-2007 01:32:02 3.8 C 4.83 g/m*3 3.8 C 0 km/h
249 13-11-2007 01:44:03 3.7 C 4.8 g/m*3 3.7 C 0 km/h
250 13-11-2007 01:56:02 3.7 C 4.86 g/m*3 3.7 C 0 km/h
Sensor: Nr:Datum:Temp:Abs-Feuchte:Windchill:Wind:
Aussen-T/F 251 13-11-2007 02:08:02 3.7 C 4.86 g/m*3 3.7 C 0 km/h
252 13-11-2007 02:20:02 3.7 C 4.86 g/m*3 3.7 C 0 km/h
253 13-11-2007 02:32:02 3.6 C 4.83 g/m*3 3.6 C 0 km/h
254 13-11-2007 02:44:02 3.8 C 4.89 g/m*3 3.8 C 0 km/h
255 13-11-2007 02:56:01 4 C 4.83 g/m*3 4 C 0 km/h
256 13-11-2007 03:08:01 4.2 C 4.83 g/m*3 4.2 C 0 km/h
257 13-11-2007 03:20:02 4.1 C 4.8 g/m*3 4.1 C 0 km/h
258 13-11-2007 03:32:02 3.9 C 4.74 g/m*3 3.9 C 0 km/h
259 13-11-2007 03:44:02 3.7 C 4.74 g/m*3 3.7 C 0 km/h
260 13-11-2007 03:56:02 3.7 C 4.74 g/m*3 3.7 C 0 km/h
261 13-11-2007 04:08:02 3.7 C 4.8 g/m*3 3.7 C 0 km/h
262 13-11-2007 04:20:02 3.7 C 4.74 g/m*3 3.7 C 0 km/h
263 13-11-2007 04:32:02 3.8 C 4.77 g/m*3 3.8 C 0 km/h
264 13-11-2007 04:44:02 3.9 C 4.8 g/m*3 3.9 C 0 km/h
265 13-11-2007 04:56:02 4 C 4.83 g/m*3 4 C 0 km/h
266 13-11-2007 05:08:02 4 C 4.83 g/m*3 4 C 0 km/h
267 13-11-2007 05:20:01 3.9 C 4.86 g/m*3 3.9 C 0 km/h
268 13-11-2007 05:32:01 3.8 C 4.83 g/m*3 3.8 C 0 km/h
269 13-11-2007 05:44:01 3.8 C 4.89 g/m*3 3.8 C 0 km/h
270 13-11-2007 05:56:01 3.8 C 4.89 g/m*3 3.8 C 0 km/h
271 13-11-2007 06:08:01 3.8 C 4.96 g/m*3 3.8 C 0 km/h
272 13-11-2007 06:20:01 4 C 4.96 g/m*3 4 C 0 km/h
273 13-11-2007 06:32:02 4.1 C 4.99 g/m*3 4.1 C 0 km/h
274 13-11-2007 06:44:02 4.1 C 4.99 g/m*3 4.1 C 0 km/h
275 13-11-2007 06:56:01 4 C 5.09 g/m*3 4 C 0 km/h
Sensor: Nr:Datum:Temp:Abs-Feuchte:Windchill:Wind:
Aussen-T/F 276 13-11-2007 07:08:02 3.8 C 5.21 g/m*3 3.8 C 0 km/h
277 13-11-2007 07:20:02 3.7 C 5.36 g/m*3 3.7 C 0 km/h
278 13-11-2007 07:32:02 3.7 C 5.48 g/m*3 3.7 C 0 km/h
279 13-11-2007 07:44:02 3.7 C 5.55 g/m*3 3.7 C 0 km/h
280 13-11-2007 07:56:02 3.7 C 5.55 g/m*3 3.7 C 0 km/h
281 13-11-2007 08:08:02 3.8 C 5.58 g/m*3 3.8 C 0 km/h
282 13-11-2007 08:20:01 3.8 C 5.58 g/m*3 3.8 C 0 km/h
283 13-11-2007 08:32:02 3.8 C 5.58 g/m*3 3.8 C 0 km/h
284 13-11-2007 08:44:02 3.8 C 5.58 g/m*3 3.8 C 0 km/h
285 13-11-2007 08:56:01 3.8 C 5.58 g/m*3 3.8 C 0 km/h
286 13-11-2007 09:08:02 3.9 C 5.62 g/m*3 3.9 C 0 km/h
287 13-11-2007 09:20:02 4.2 C 5.67 g/m*3 4.2 C 0 km/h
288 13-11-2007 09:32:01 4.4 C 5.62 g/m*3 4.4 C 0 km/h
289 13-11-2007 09:44:01 4.5 C 5.46 g/m*3 4.5 C 0 km/h
290 13-11-2007 09:56:02 4.7 C 5.4 g/m*3 4.7 C 0 km/h
291 13-11-2007 10:08:02 4.8 C 5.23 g/m*3 4.8 C 0 km/h
292 13-11-2007 10:20:01 5 C 5.03 g/m*3 5 C 0 km/h
293 13-11-2007 10:32:01 5.2 C 4.89 g/m*3 5.2 C 0 km/h
294 13-11-2007 10:44:01 5.3 C 4.78 g/m*3 5.3 C 0 km/h
295 13-11-2007 10:56:01 5.2 C 4.96 g/m*3 5.2 C 0 km/h
296 13-11-2007 11:08:01 5.4 C 4.74 g/m*3 5.4 C 0 km/h
297 13-11-2007 11:20:02 5.6 C 4.67 g/m*3 5.6 C 0 km/h
298 13-11-2007 11:32:02 5.6 C 4.52 g/m*3 5.6 C 0 km/h
299 13-11-2007 11:44:02 5.6 C 4.6 g/m*3 5.6 C 0 km/h
300 13-11-2007 11:56:02 6 C 4.65 g/m*3 6 C 0 km/h
Sensor: Nr:Datum:Temp:Abs-Feuchte:Windchill:Wind:
Aussen-T/F 301 13-11-2007 12:08:02 6.2 C 4.34 g/m*3 6.2 C 0 km/h
302 13-11-2007 12:20:01 6.2 C 4.27 g/m*3 6.2 C 0 km/h
303 13-11-2007 12:32:01 6.4 C 4.47 g/m*3 6.4 C 0 km/h
304 13-11-2007 12:44:01 6.4 C 4.47 g/m*3 6.4 C 0 km/h
305 13-11-2007 12:56:02 6.1 C 4.38 g/m*3 6.1 C 0 km/h
306 13-11-2007 13:08:01 5.7 C 4.63 g/m*3 5.7 C 0 km/h
307 13-11-2007 13:20:01 5.3 C 4.85 g/m*3 5.3 C 0 km/h
308 13-11-2007 13:32:02 4.6 C 5.03 g/m*3 4.6 C 0 km/h
309 13-11-2007 13:44:02 4.4 C 5.09 g/m*3 4.4 C 0 km/h
310 13-11-2007 13:56:01 4.3 C 5.12 g/m*3 4.3 C 0 km/h
311 13-11-2007 14:08:02 4.2 C 5.09 g/m*3 4.2 C 0 km/h
312 13-11-2007 14:20:02 3.8 C 5.08 g/m*3 3.8 C 0 km/h
313 13-11-2007 14:32:01 3.7 C 5.17 g/m*3 3.7 C 0 km/h
314 13-11-2007 14:44:01 3.6 C 5.26 g/m*3 3.6 C 0 km/h
315 13-11-2007 14:56:02 3.5 C 5.29 g/m*3 3.5 C 0 km/h
316 13-11-2007 15:08:01 3.6 C 5.32 g/m*3 3.6 C 0 km/h
317 13-11-2007 15:20:02 3.6 C 5.32 g/m*3 3.6 C 0 km/h
318 13-11-2007 15:32:02 3.8 C 5.27 g/m*3 3.8 C 0 km/h
319 13-11-2007 15:44:02 3.9 C 5.24 g/m*3 3.9 C 0 km/h
320 13-11-2007 15:56:01 3.8 C 5.27 g/m*3 3.8 C 0 km/h
321 13-11-2007 16:08:02 3.7 C 5.3 g/m*3 3.7 C 0 km/h
322 13-11-2007 16:20:02 3.6 C 5.32 g/m*3 3.6 C 0 km/h
323 13-11-2007 16:32:02 3.5 C 5.29 g/m*3 3.5 C 0 km/h
324 13-11-2007 16:44:02 3.5 C 5.35 g/m*3 3.5 C 0 km/h
325 13-11-2007 16:56:02 3.4 C 5.31 g/m*3 3.4 C 0 km/h
Sensor: Nr:Datum:Temp:Abs-Feuchte:Windchill:Wind:
Aussen-T/F 326 13-11-2007 17:08:02 3.3 C 5.34 g/m*3 3.3 C 0 km/h
327 13-11-2007 17:20:02 3.3 C 5.34 g/m*3 3.3 C 0 km/h
328 13-11-2007 17:32:02 3.2 C 5.3 g/m*3 3.2 C 0 km/h
329 13-11-2007 17:44:02 3.3 C 5.34 g/m*3 3.3 C 0 km/h
330 13-11-2007 17:56:01 3.2 C 5.3 g/m*3 3.2 C 0 km/h
331 13-11-2007 18:08:01 3.2 C 5.36 g/m*3 3.2 C 0 km/h
332 13-11-2007 18:20:01 3.2 C 5.36 g/m*3 3.2 C 0 km/h
333 13-11-2007 18:32:01 3.3 C 5.4 g/m*3 3.3 C 0 km/h
334 13-11-2007 18:44:01 3.3 C 5.4 g/m*3 3.3 C 0 km/h
335 13-11-2007 18:56:02 3.5 C 5.41 g/m*3 3.5 C 0 km/h
336 13-11-2007 19:08:02 3.7 C 5.42 g/m*3 3.7 C 0 km/h
337 13-11-2007 19:20:01 3.8 C 5.33 g/m*3 3.8 C 0 km/h
338 13-11-2007 19:32:01 3.8 C 5.27 g/m*3 3.8 C 0 km/h
339 13-11-2007 19:44:01 3.8 C 5.27 g/m*3 3.8 C 0 km/h
340 13-11-2007 19:56:02 3.5 C 5.29 g/m*3 3.5 C 0 km/h
341 13-11-2007 20:08:02 3.5 C 5.35 g/m*3 3.5 C 0 km/h
342 13-11-2007 20:20:01 3.5 C 5.41 g/m*3 3.5 C 0 km/h
343 13-11-2007 20:32:02 3.6 C 5.39 g/m*3 3.6 C 0 km/h
344 13-11-2007 20:44:02 3.6 C 5.39 g/m*3 3.6 C 0 km/h
345 13-11-2007 20:56:01 3.6 C 5.39 g/m*3 3.6 C 0 km/h
346 13-11-2007 21:08:01 3.6 C 5.39 g/m*3 3.6 C 0 km/h
347 13-11-2007 21:20:02 3.6 C 5.32 g/m*3 3.6 C 0 km/h
348 13-11-2007 21:32:02 3.6 C 5.32 g/m*3 3.6 C 0 km/h
349 13-11-2007 21:44:02 3.5 C 5.35 g/m*3 3.5 C 0 km/h
350 13-11-2007 21:56:01 3.4 C 5.37 g/m*3 3.4 C 0 km/h
Sensor: Nr:Datum:Temp:Abs-Feuchte:Windchill:Wind:
Aussen-T/F 351 13-11-2007 22:08:01 3.4 C 5.37 g/m*3 3.4 C 0 km/h
352 13-11-2007 22:20:01 3.4 C 5.44 g/m*3 3.4 C 0 km/h
353 13-11-2007 22:32:01 3.4 C 5.44 g/m*3 3.4 C 0 km/h
354 13-11-2007 22:44:01 3.2 C 5.42 g/m*3 3.2 C 0 km/h
355 13-11-2007 22:56:02 3.2 C 5.48 g/m*3 3.2 C 0 km/h
356 13-11-2007 23:08:02 3.2 C 5.48 g/m*3 3.2 C 0 km/h
357 13-11-2007 23:20:02 3.1 C 5.51 g/m*3 3.1 C 0 km/h
358 13-11-2007 23:32:02 3.2 C 5.54 g/m*3 3.2 C 0 km/h
359 13-11-2007 23:44:02 3.3 C 5.64 g/m*3 3.3 C 0 km/h
360 13-11-2007 23:56:01 3.4 C 5.68 g/m*3 3.4 C 0 km/h
361 14-11-2007 00:08:01 3.4 C 5.68 g/m*3 3.4 C 0 km/h
362 14-11-2007 00:20:02 3.4 C 5.74 g/m*3 3.4 C 0 km/h
363 14-11-2007 00:32:02 3.4 C 5.74 g/m*3 3.4 C 0 km/h
364 14-11-2007 00:44:02 3.5 C 5.78 g/m*3 3.5 C 0 km/h
365 14-11-2007 00:56:01 3.6 C 5.82 g/m*3 3.6 C 0 km/h
366 14-11-2007 01:08:01 3.6 C 5.88 g/m*3 3.6 C 0 km/h
367 14-11-2007 01:20:01 3.7 C 5.92 g/m*3 3.7 C 0 km/h
368 14-11-2007 01:32:01 3.7 C 5.92 g/m*3 3.7 C 0 km/h
369 14-11-2007 01:44:01 3.7 C 5.92 g/m*3 3.7 C 0 km/h
370 14-11-2007 01:56:02 3.8 C 5.96 g/m*3 3.8 C 0 km/h
371 14-11-2007 02:08:02 3.8 C 5.96 g/m*3 3.8 C 0 km/h
372 14-11-2007 02:20:01 3.7 C 5.92 g/m*3 3.7 C 0 km/h
373 14-11-2007 02:32:01 3.7 C 5.92 g/m*3 3.7 C 0 km/h
374 14-11-2007 02:44:01 3.6 C 5.82 g/m*3 3.6 C 0 km/h
375 14-11-2007 02:57:07 3.5 C 5.66 g/m*3 3.5 C 0 km/h
Sensor: Nr:Datum:Temp:Abs-Feuchte:Windchill:Wind:
Aussen-T/F 376 14-11-2007 03:09:07 3.4 C 5.5 g/m*3 3.4 C 0 km/h
377 14-11-2007 03:21:07 3.2 C 5.3 g/m*3 3.2 C 0 km/h
378 14-11-2007 03:33:02 3.1 C 5.15 g/m*3 3.1 C 0 km/h
379 14-11-2007 03:45:02 3.1 C 5.09 g/m*3 3.1 C 0 km/h
380 14-11-2007 03:57:03 3 C 5.05 g/m*3 3 C 0 km/h
381 14-11-2007 04:09:02 3 C 5.11 g/m*3 3 C 0 km/h
382 14-11-2007 04:21:02 3 C 5.05 g/m*3 3 C 0 km/h
383 14-11-2007 04:33:02 3 C 4.99 g/m*3 3 C 0 km/h
384 14-11-2007 04:45:02 2.7 C 4.89 g/m*3 2.7 C 0 km/h
385 14-11-2007 04:57:02 2.4 C 4.85 g/m*3 2.4 C 0 km/h
386 14-11-2007 05:09:02 2.4 C 4.91 g/m*3 2.4 C 0 km/h
387 14-11-2007 05:21:02 2.4 C 4.85 g/m*3 2.4 C 0 km/h
388 14-11-2007 05:33:02 2.2 C 4.73 g/m*3 2.2 C 0 km/h
389 14-11-2007 05:45:02 1.8 C 4.71 g/m*3 1.8 C 0 km/h
390 14-11-2007 05:57:02 1.9 C 4.8 g/m*3 1.9 C 0 km/h
391 14-11-2007 06:09:02 2.2 C 4.84 g/m*3 2.2 C 0 km/h
392 14-11-2007 06:21:02 2.3 C 4.82 g/m*3 2.3 C 0 km/h
393 14-11-2007 06:33:02 2.4 C 4.8 g/m*3 2.4 C 0 km/h
394 14-11-2007 06:45:02 2.5 C 4.83 g/m*3 2.5 C 0 km/h
395 14-11-2007 06:57:02 2.4 C 4.85 g/m*3 2.4 C 0 km/h
396 14-11-2007 07:09:02 2.4 C 4.85 g/m*3 2.4 C 0 km/h
397 14-11-2007 07:21:02 2.4 C 4.91 g/m*3 2.4 C 0 km/h
398 14-11-2007 07:33:02 2.4 C 4.91 g/m*3 2.4 C 0 km/h
399 14-11-2007 07:45:02 2.5 C 4.94 g/m*3 2.5 C 0 km/h
400 14-11-2007 07:57:02 2.5 C 4.94 g/m*3 2.5 C 0 km/h
Sensor: Nr:Datum:Temp:Abs-Feuchte:Windchill:Wind:
Aussen-T/F 401 14-11-2007 08:09:02 2.5 C 5 g/m*3 2.5 C 0 km/h
402 14-11-2007 08:21:02 2.5 C 5 g/m*3 2.5 C 0 km/h
403 14-11-2007 08:33:02 2.7 C 4.95 g/m*3 2.7 C 0 km/h
404 14-11-2007 08:45:02 2.7 C 4.95 g/m*3 2.7 C 0 km/h
405 14-11-2007 08:57:02 2.9 C 4.84 g/m*3 2.9 C 0 km/h
406 14-11-2007 09:09:02 2.9 C 4.72 g/m*3 2.9 C 0 km/h
407 14-11-2007 09:21:02 3 C 4.7 g/m*3 3 C 0 km/h
408 14-11-2007 09:33:02 3 C 4.58 g/m*3 3 C 0 km/h
409 14-11-2007 09:45:02 3.1 C 4.55 g/m*3 3.1 C 0 km/h
410 14-11-2007 09:57:02 3 C 4.4 g/m*3 3 C 0 km/h
411 14-11-2007 10:09:02 2.8 C 4.28 g/m*3 2.8 C 0 km/h
412 14-11-2007 10:21:02 3.2 C 4.34 g/m*3 3.2 C 0 km/h
413 14-11-2007 10:33:02 3.3 C 4.31 g/m*3 3.3 C 0 km/h
414 14-11-2007 10:45:02 3.2 C 4.22 g/m*3 3.2 C 0 km/h
415 14-11-2007 10:57:02 3 C 4.1 g/m*3 3 C 0 km/h
416 14-11-2007 11:09:02 3.2 C 4.1 g/m*3 3.2 C 0 km/h
417 14-11-2007 11:21:02 3.4 C 4.09 g/m*3 3.4 C 0 km/h
418 14-11-2007 11:33:02 3.5 C 4.12 g/m*3 3.5 C 0 km/h
419 14-11-2007 11:45:02 3.6 C 4.15 g/m*3 3.6 C 0 km/h
420 14-11-2007 11:57:02 3.4 C 3.97 g/m*3 3.4 C 0 km/h
421 14-11-2007 12:09:02 3.5 C 4.12 g/m*3 3.5 C 0 km/h
422 14-11-2007 12:21:02 3.6 C 3.96 g/m*3 3.6 C 0 km/h
423 14-11-2007 12:33:02 3.2 C 3.92 g/m*3 3.2 C 0 km/h
424 14-11-2007 12:45:02 3.3 C 4 g/m*3 3.3 C 0 km/h
425 14-11-2007 12:57:02 3.6 C 3.9 g/m*3 3.6 C 0 km/h
Sensor: Nr:Datum:Temp:Abs-Feuchte:Windchill:Wind:
Aussen-T/F 426 14-11-2007 13:09:02 3.8 C 3.83 g/m*3 3.8 C 0 km/h
427 14-11-2007 13:21:01 3.8 C 3.83 g/m*3 3.8 C 0 km/h
428 14-11-2007 13:33:02 4.1 C 3.78 g/m*3 4.1 C 0 km/h
429 14-11-2007 13:45:02 3.5 C 3.44 g/m*3 3.5 C 0 km/h
430 14-11-2007 13:57:02 3.5 C 3.44 g/m*3 3.5 C 0 km/h
431 14-11-2007 14:09:02 3.5 C 3.44 g/m*3 3.5 C 0 km/h
432 14-11-2007 14:21:02 3.5 C 3.38 g/m*3 3.5 C 0 km/h
433 14-11-2007 14:33:02 3.6 C 3.4 g/m*3 3.6 C 0 km/h
434 14-11-2007 14:45:01 3.6 C 3.47 g/m*3 3.6 C 0 km/h
435 14-11-2007 14:57:01 3.5 C 3.38 g/m*3 3.5 C 0 km/h
436 14-11-2007 15:09:01 3.5 C 3.44 g/m*3 3.5 C 0 km/h
437 14-11-2007 15:21:01 3.4 C 3.48 g/m*3 3.4 C 0 km/h
438 14-11-2007 15:33:01 3.4 C 3.54 g/m*3 3.4 C 0 km/h
439 14-11-2007 15:45:02 3.4 C 3.54 g/m*3 3.4 C 0 km/h
440 14-11-2007 15:57:02 3.4 C 3.36 g/m*3 3.4 C 0 km/h
441 14-11-2007 16:09:02 3.3 C 3.34 g/m*3 3.3 C 0 km/h
442 14-11-2007 16:21:02 3.2 C 3.31 g/m*3 3.2 C 0 km/h
443 14-11-2007 16:33:02 3.2 C 3.31 g/m*3 3.2 C 0 km/h
444 14-11-2007 16:45:02 2.9 C 3.43 g/m*3 2.9 C 0 km/h
445 14-11-2007 16:57:02 2.7 C 3.44 g/m*3 2.7 C 0 km/h
446 14-11-2007 17:09:02 2.7 C 3.5 g/m*3 2.7 C 0 km/h
447 14-11-2007 17:21:02 2.4 C 3.54 g/m*3 2.4 C 0 km/h
448 14-11-2007 17:33:02 2.4 C 3.6 g/m*3 2.4 C 0 km/h
449 14-11-2007 17:45:02 2.6 C 3.7 g/m*3 2.6 C 0 km/h
450 14-11-2007 17:57:02 2.4 C 3.65 g/m*3 2.4 C 0 km/h
Sensor: Nr:Datum:Temp:Abs-Feuchte:Windchill:Wind:
Aussen-T/F 451 14-11-2007 18:09:02 2.1 C 3.64 g/m*3 2.1 C 0 km/h
452 14-11-2007 18:21:02 2.2 C 3.66 g/m*3 2.2 C 0 km/h
453 14-11-2007 18:33:02 2.3 C 3.69 g/m*3 2.3 C 0 km/h
454 14-11-2007 18:45:01 2.3 C 3.74 g/m*3 2.3 C 0 km/h
455 14-11-2007 18:57:01 2.3 C 3.8 g/m*3 2.3 C 0 km/h
456 14-11-2007 19:09:01 2.2 C 3.77 g/m*3 2.2 C 0 km/h
457 14-11-2007 19:21:02 2.1 C 3.8 g/m*3 2.1 C 0 km/h
458 14-11-2007 19:33:02 2.3 C 3.8 g/m*3 2.3 C 0 km/h
459 14-11-2007 19:45:02 2.3 C 3.8 g/m*3 2.3 C 0 km/h
460 14-11-2007 19:57:02 2.2 C 3.83 g/m*3 2.2 C 0 km/h
461 14-11-2007 20:09:01 2.1 C 3.86 g/m*3 2.1 C 0 km/h
462 14-11-2007 20:21:02 2 C 3.95 g/m*3 2 C 0 km/h
463 14-11-2007 20:33:02 2 C 4 g/m*3 2 C 0 km/h
464 14-11-2007 20:45:02 1.8 C 4.06 g/m*3 1.8 C 0 km/h
465 14-11-2007 20:57:02 1.9 C 4.08 g/m*3 1.9 C 0 km/h
466 14-11-2007 21:09:02 1.9 C 3.97 g/m*3 1.9 C 0 km/h
467 14-11-2007 21:21:02 1.6 C 3.89 g/m*3 1.6 C 0 km/h
468 14-11-2007 21:33:02 1.6 C 3.84 g/m*3 1.6 C 0 km/h
469 14-11-2007 21:45:02 1.5 C 3.81 g/m*3 1.5 C 0 km/h
470 14-11-2007 21:57:02 1.4 C 3.84 g/m*3 1.4 C 0 km/h
471 14-11-2007 22:09:02 0.9 C 3.81 g/m*3 0.9 C 0 km/h
472 14-11-2007 22:21:01 0.8 C 3.89 g/m*3 0.8 C 0 km/h
473 14-11-2007 22:33:01 0.7 C 3.92 g/m*3 0.7 C 0 km/h
474 14-11-2007 22:45:02 0.8 C 3.99 g/m*3 0.8 C 0 km/h
475 14-11-2007 22:57:02 1 C 4.05 g/m*3 1 C 0 km/h
Sensor: Nr:Datum:Temp:Abs-Feuchte:Windchill:Wind:
Aussen-T/F 476 14-11-2007 23:09:02 0.9 C 4.02 g/m*3 0.9 C 0 km/h
477 14-11-2007 23:21:02 0.9 C 4.07 g/m*3 0.9 C 0 km/h
478 14-11-2007 23:33:02 0.8 C 3.99 g/m*3 0.8 C 0 km/h
479 14-11-2007 23:45:02 1 C 4.05 g/m*3 1 C 0 km/h
480 14-11-2007 23:57:02 0.9 C 4.07 g/m*3 0.9 C 0 km/h
481 15-11-2007 00:09:02 0.6 C 3.99 g/m*3 0.6 C 0 km/h
482 15-11-2007 00:21:02 0.3 C 3.96 g/m*3 0.3 C 0 km/h
483 15-11-2007 00:33:02 0.3 C 4.01 g/m*3 0.3 C 0 km/h
484 15-11-2007 00:45:02 0.4 C 4.03 g/m*3 0.4 C 0 km/h
485 15-11-2007 00:57:02 0.4 C 3.98 g/m*3 0.4 C 0 km/h
486 15-11-2007 01:09:02 0.3 C 4.01 g/m*3 0.3 C 0 km/h
487 15-11-2007 01:21:02 0.4 C 4.03 g/m*3 0.4 C 0 km/h
488 15-11-2007 01:33:02 0.4 C 3.98 g/m*3 0.4 C 0 km/h
489 15-11-2007 01:45:01 0.5 C 4.01 g/m*3 0.5 C 0 km/h
490 15-11-2007 01:57:01 0.6 C 4.04 g/m*3 0.6 C 0 km/h
491 15-11-2007 02:09:02 0.6 C 4.04 g/m*3 0.6 C 0 km/h
492 15-11-2007 02:21:02 0.7 C 4.07 g/m*3 0.7 C 0 km/h
493 15-11-2007 02:33:02 0.8 C 4.04 g/m*3 0.8 C 0 km/h
494 15-11-2007 02:46:03 0.8 C 4.04 g/m*3 0.8 C 0 km/h
495 15-11-2007 02:58:03 0.7 C 4.02 g/m*3 0.7 C 0 km/h
496 15-11-2007 03:10:03 0.4 C 3.93 g/m*3 0.4 C 0 km/h
497 15-11-2007 03:22:03 0.2 C 3.93 g/m*3 0.2 C 0 km/h
498 15-11-2007 03:34:02 0.4 C 4.03 g/m*3 0.4 C 0 km/h
499 15-11-2007 03:46:02 0.2 C 3.93 g/m*3 0.2 C 0 km/h
500 15-11-2007 03:58:02 0.2 C 3.98 g/m*3 0.2 C 0 km/h
Sensor: Nr:Datum:Temp:Abs-Feuchte:Windchill:Wind:
Aussen-T/F 501 15-11-2007 04:10:03 0.2 C 3.98 g/m*3 0.2 C 0 km/h
502 15-11-2007 04:22:03 0.2 C 3.98 g/m*3 0.2 C 0 km/h
503 15-11-2007 04:34:03 0.4 C 4.03 g/m*3 0.4 C 0 km/h
504 15-11-2007 04:46:01 0.4 C 3.98 g/m*3 0.4 C 0 km/h
505 15-11-2007 04:58:01 0.4 C 3.98 g/m*3 0.4 C 0 km/h
506 15-11-2007 05:10:01 0.3 C 3.96 g/m*3 0.3 C 0 km/h
507 15-11-2007 05:22:01 0.3 C 3.96 g/m*3 0.3 C 0 km/h
508 15-11-2007 05:34:01 0.4 C 3.98 g/m*3 0.4 C 0 km/h
509 15-11-2007 05:46:02 0.5 C 4.01 g/m*3 0.5 C 0 km/h
510 15-11-2007 05:58:02 0.5 C 4.01 g/m*3 0.5 C 0 km/h
511 15-11-2007 06:10:02 0.5 C 3.96 g/m*3 0.5 C 0 km/h
512 15-11-2007 06:22:02 0.3 C 3.86 g/m*3 0.3 C 0 km/h
513 15-11-2007 06:34:02 0 C 3.83 g/m*3 0 C 0 km/h
514 15-11-2007 06:46:01 0.4 C 3.88 g/m*3 0.4 C 0 km/h
515 15-11-2007 06:58:01 0.7 C 3.76 g/m*3 0.7 C 0 km/h
516 15-11-2007 07:10:01 0.6 C 3.74 g/m*3 0.6 C 0 km/h
517 15-11-2007 07:22:02 0.6 C 3.79 g/m*3 0.6 C 0 km/h
518 15-11-2007 07:34:02 0.5 C 3.76 g/m*3 0.5 C 0 km/h
519 15-11-2007 07:46:02 0.5 C 3.76 g/m*3 0.5 C 0 km/h
520 15-11-2007 07:58:02 0.6 C 3.79 g/m*3 0.6 C 0 km/h
521 15-11-2007 08:10:03 0.6 C 3.79 g/m*3 0.6 C 0 km/h
522 15-11-2007 08:22:03 0.7 C 3.76 g/m*3 0.7 C 0 km/h
523 15-11-2007 08:34:03 0.7 C 3.76 g/m*3 0.7 C 0 km/h
524 15-11-2007 08:46:02 0.7 C 3.81 g/m*3 0.7 C 0 km/h
525 15-11-2007 08:58:02 0.8 C 3.84 g/m*3 0.8 C 0 km/h
Sensor: Nr:Datum:Temp:Abs-Feuchte:Windchill:Wind:
Aussen-T/F 526 15-11-2007 09:10:02 0.8 C 3.84 g/m*3 0.8 C 0 km/h
527 15-11-2007 09:22:02 0.8 C 3.79 g/m*3 0.8 C 0 km/h
528 15-11-2007 09:34:02 1 C 3.84 g/m*3 1 C 0 km/h
529 15-11-2007 09:46:01 1.1 C 3.87 g/m*3 1.1 C 0 km/h
530 15-11-2007 09:58:01 1.3 C 3.92 g/m*3 1.3 C 0 km/h
531 15-11-2007 10:10:01 1.4 C 3.84 g/m*3 1.4 C 0 km/h
532 15-11-2007 10:22:01 1.5 C 3.87 g/m*3 1.5 C 0 km/h
533 15-11-2007 10:34:01 1.7 C 3.87 g/m*3 1.7 C 0 km/h
534 15-11-2007 10:46:02 1.8 C 3.89 g/m*3 1.8 C 0 km/h
535 15-11-2007 10:58:02 2.3 C 3.91 g/m*3 2.3 C 0 km/h
536 15-11-2007 11:10:02 3 C 3.92 g/m*3 3 C 0 km/h
537 15-11-2007 11:22:02 3.1 C 3.77 g/m*3 3.1 C 0 km/h
538 15-11-2007 11:34:02 2.4 C 3.71 g/m*3 2.4 C 0 km/h
539 15-11-2007 11:46:02 2.7 C 3.9 g/m*3 2.7 C 0 km/h
540 15-11-2007 11:58:02 3.3 C 3.88 g/m*3 3.3 C 0 km/h
541 15-11-2007 12:10:02 3.3 C 3.64 g/m*3 3.3 C 0 km/h
542 15-11-2007 12:22:02 3.9 C 3.79 g/m*3 3.9 C 0 km/h
543 15-11-2007 12:34:02 4.5 C 3.75 g/m*3 4.5 C 0 km/h
544 15-11-2007 12:46:03 5.1 C 3.63 g/m*3 5.1 C 0 km/h
545 15-11-2007 12:58:03 4.1 C 3.46 g/m*3 4.1 C 0 km/h
546 15-11-2007 13:10:03 4.6 C 3.51 g/m*3 4.6 C 0 km/h
547 15-11-2007 13:22:03 5.4 C 3.49 g/m*3 5.4 C 0 km/h
548 15-11-2007 13:34:03 6.2 C 3.38 g/m*3 6.2 C 0 km/h
549 15-11-2007 13:46:02 6.6 C 3.17 g/m*3 6.6 C 0 km/h
550 15-11-2007 13:58:02 4.7 C 3.33 g/m*3 4.7 C 0 km/h
Sensor: Nr:Datum:Temp:Abs-Feuchte:Windchill:Wind:
Aussen-T/F 551 15-11-2007 14:10:02 4.5 C 3.42 g/m*3 4.5 C 0 km/h
552 15-11-2007 14:22:02 4.6 C 3.57 g/m*3 4.6 C 0 km/h
553 15-11-2007 14:34:02 4.4 C 3.46 g/m*3 4.4 C 0 km/h
554 15-11-2007 14:46:01 4.4 C 3.53 g/m*3 4.4 C 0 km/h
555 15-11-2007 14:58:01 4.3 C 3.44 g/m*3 4.3 C 0 km/h
556 15-11-2007 15:10:01 3.7 C 3.74 g/m*3 3.7 C 0 km/h
557 15-11-2007 15:22:02 3.6 C 3.9 g/m*3 3.6 C 0 km/h
558 15-11-2007 15:34:02 3.6 C 3.9 g/m*3 3.6 C 0 km/h
559 15-11-2007 15:46:03 3.2 C 3.86 g/m*3 3.2 C 0 km/h
560 15-11-2007 15:58:03 3.2 C 3.98 g/m*3 3.2 C 0 km/h
561 15-11-2007 16:10:03 3.2 C 4.04 g/m*3 3.2 C 0 km/h
562 15-11-2007 16:22:03 3 C 3.98 g/m*3 3 C 0 km/h
563 15-11-2007 16:34:03 2.9 C 4.07 g/m*3 2.9 C 0 km/h
564 15-11-2007 16:46:02 2.8 C 4.11 g/m*3 2.8 C 0 km/h
565 15-11-2007 16:58:02 2.8 C 4.11 g/m*3 2.8 C 0 km/h
566 15-11-2007 17:10:02 2.9 C 3.78 g/m*3 2.9 C 0 km/h
567 15-11-2007 17:22:02 2.9 C 3.48 g/m*3 2.9 C 0 km/h
568 15-11-2007 17:34:03 2.9 C 3.43 g/m*3 2.9 C 0 km/h
569 15-11-2007 17:46:02 2.6 C 3.36 g/m*3 2.6 C 0 km/h
570 15-11-2007 17:58:02 2.1 C 3.36 g/m*3 2.1 C 0 km/h
571 15-11-2007 18:10:02 1.5 C 3.44 g/m*3 1.5 C 0 km/h
572 15-11-2007 18:22:03 0.8 C 3.58 g/m*3 0.8 C 0 km/h
573 15-11-2007 18:34:03 0.5 C 3.61 g/m*3 0.5 C 0 km/h
574 15-11-2007 18:46:01 0.4 C 3.64 g/m*3 0.4 C 0 km/h
575 15-11-2007 18:58:01 0.4 C 3.69 g/m*3 0.4 C 0 km/h
Sensor: Nr:Datum:Temp:Abs-Feuchte:Windchill:Wind:
Aussen-T/F 576 15-11-2007 19:10:01 0.2 C 3.64 g/m*3 0.2 C 0 km/h
577 15-11-2007 19:22:02 0.1 C 3.66 g/m*3 0.1 C 0 km/h
578 15-11-2007 19:34:02 0 C 3.63 g/m*3 0 C 0 km/h
579 15-11-2007 19:46:03 -0.1 C 3.66 g/m*3 -0.1 C 0 km/h
580 15-11-2007 19:58:03 0.2 C 3.78 g/m*3 0.2 C 0 km/h
581 15-11-2007 20:10:02 0.3 C 3.81 g/m*3 0.3 C 0 km/h
582 15-11-2007 20:22:02 0.5 C 3.81 g/m*3 0.5 C 0 km/h
583 15-11-2007 20:34:02 0.5 C 3.81 g/m*3 0.5 C 0 km/h
584 15-11-2007 20:46:02 0.4 C 3.74 g/m*3 0.4 C 0 km/h
585 15-11-2007 20:58:03 0.1 C 3.66 g/m*3 0.1 C 0 km/h
586 15-11-2007 21:10:02 0 C 3.68 g/m*3 0 C 0 km/h
587 15-11-2007 21:22:02 0.3 C 3.81 g/m*3 0.3 C 0 km/h
588 15-11-2007 21:34:02 0.3 C 3.81 g/m*3 0.3 C 0 km/h
589 15-11-2007 21:46:01 0.2 C 3.73 g/m*3 0.2 C 0 km/h
590 15-11-2007 21:58:01 0 C 3.68 g/m*3 0 C 0 km/h
591 15-11-2007 22:10:02 -0.2 C 3.63 g/m*3 -0.2 C 0 km/h
592 15-11-2007 22:22:02 -0.5 C 3.6 g/m*3 -0.5 C 0 km/h
593 15-11-2007 22:34:02 -0.7 C 3.6 g/m*3 -0.7 C 0 km/h
594 15-11-2007 22:46:02 -0.8 C 3.62 g/m*3 -0.8 C 0 km/h
595 15-11-2007 22:58:03 -0.9 C 3.64 g/m*3 -0.9 C 0 km/h
596 15-11-2007 23:10:02 -1.1 C 3.59 g/m*3 -1.1 C 0 km/h
597 15-11-2007 23:22:02 -1.3 C 3.59 g/m*3 -1.3 C 0 km/h
598 15-11-2007 23:34:01 -1.6 C 3.55 g/m*3 -1.6 C 0 km/h
599 15-11-2007 23:46:03 -1.8 C 3.51 g/m*3 -1.8 C 0 km/h
600 15-11-2007 23:58:03 -1.8 C 3.55 g/m*3 -1.8 C 0 km/h
Sensor: Nr:Datum:Temp:Abs-Feuchte:Windchill:Wind:
Aussen-T/F 601 16-11-2007 00:10:02 -2.1 C 3.47 g/m*3 -2.1 C 0 km/h
602 16-11-2007 00:22:03 -1.9 C 3.61 g/m*3 -1.9 C 0 km/h
603 16-11-2007 00:34:02 -1.6 C 3.73 g/m*3 -1.6 C 0 km/h
604 16-11-2007 00:46:02 -1.6 C 3.77 g/m*3 -1.6 C 0 km/h
605 16-11-2007 00:58:02 -1.8 C 3.72 g/m*3 -1.8 C 0 km/h
606 16-11-2007 01:10:02 -2 C 3.67 g/m*3 -2 C 0 km/h
607 16-11-2007 01:22:02 -2 C 3.67 g/m*3 -2 C 0 km/h
608 16-11-2007 01:34:02 -1.9 C 3.69 g/m*3 -1.9 C 0 km/h
609 16-11-2007 01:46:02 -2.1 C 3.64 g/m*3 -2.1 C 0 km/h
610 16-11-2007 01:58:02 -2.1 C 3.68 g/m*3 -2.1 C 0 km/h
611 16-11-2007 02:10:02 -2.3 C 3.63 g/m*3 -2.3 C 0 km/h
612 16-11-2007 02:22:02 -2.3 C 3.63 g/m*3 -2.3 C 0 km/h
613 16-11-2007 02:34:02 -2.4 C 3.65 g/m*3 -2.4 C 0 km/h
614 16-11-2007 02:47:04 -2.5 C 3.62 g/m*3 -2.5 C 0 km/h
615 16-11-2007 02:59:04 -2.6 C 3.6 g/m*3 -2.6 C 0 km/h
616 16-11-2007 03:11:04 -2.6 C 3.6 g/m*3 -2.6 C 0 km/h
617 16-11-2007 03:23:04 -2.7 C 3.57 g/m*3 -2.7 C 0 km/h
618 16-11-2007 03:35:02 -2.7 C 3.61 g/m*3 -2.7 C 0 km/h
619 16-11-2007 03:47:02 -3 C 3.54 g/m*3 -3 C 0 km/h
620 16-11-2007 03:59:02 -2.9 C 3.56 g/m*3 -2.9 C 0 km/h
621 16-11-2007 04:11:02 -2.8 C 3.59 g/m*3 -2.8 C 0 km/h
622 16-11-2007 04:23:03 -3 C 3.54 g/m*3 -3 C 0 km/h
623 16-11-2007 04:35:02 -3 C 3.54 g/m*3 -3 C 0 km/h
624 16-11-2007 04:47:03 -3.1 C 3.55 g/m*3 -3.1 C 0 km/h
625 16-11-2007 04:59:03 -3.3 C 3.5 g/m*3 -3.3 C 0 km/h
Sensor: Nr:Datum:Temp:Abs-Feuchte:Windchill:Wind:
Aussen-T/F 626 16-11-2007 05:11:02 -3.4 C 3.47 g/m*3 -3.4 C 0 km/h
627 16-11-2007 05:23:02 -3.4 C 3.47 g/m*3 -3.4 C 0 km/h
628 16-11-2007 05:35:02 -3.5 C 3.45 g/m*3 -3.5 C 0 km/h
629 16-11-2007 05:47:02 -3.6 C 3.43 g/m*3 -3.6 C 0 km/h
630 16-11-2007 05:59:02 -3.6 C 3.43 g/m*3 -3.6 C 0 km/h
631 16-11-2007 06:11:02 -3.5 C 3.49 g/m*3 -3.5 C 0 km/h
632 16-11-2007 06:23:02 -3.5 C 3.49 g/m*3 -3.5 C 0 km/h
633 16-11-2007 06:35:02 -3.6 C 3.46 g/m*3 -3.6 C 0 km/h
634 16-11-2007 06:47:02 -3.7 C 3.4 g/m*3 -3.7 C 0 km/h
635 16-11-2007 06:59:03 -4 C 3.33 g/m*3 -4 C 0 km/h
636 16-11-2007 07:11:02 -3.9 C 3.35 g/m*3 -3.9 C 0 km/h
637 16-11-2007 07:23:02 -3.9 C 3.35 g/m*3 -3.9 C 0 km/h
638 16-11-2007 07:35:02 -3.9 C 3.35 g/m*3 -3.9 C 0 km/h
639 16-11-2007 07:47:02 -3.8 C 3.38 g/m*3 -3.8 C 0 km/h
640 16-11-2007 07:59:02 -3.8 C 3.38 g/m*3 -3.8 C 0 km/h
641 16-11-2007 08:11:02 -3.8 C 3.38 g/m*3 -3.8 C 0 km/h
642 16-11-2007 08:23:02 -3.5 C 3.49 g/m*3 -3.5 C 0 km/h
643 16-11-2007 08:35:02 -3.5 C 3.49 g/m*3 -3.5 C 0 km/h
644 16-11-2007 08:47:02 -3.4 C 3.47 g/m*3 -3.4 C 0 km/h
645 16-11-2007 08:59:02 -3.1 C 3.55 g/m*3 -3.1 C 0 km/h
646 16-11-2007 09:11:01 -2.9 C 3.6 g/m*3 -2.9 C 0 km/h
647 16-11-2007 09:23:01 -2.6 C 3.72 g/m*3 -2.6 C 0 km/h
648 16-11-2007 09:35:01 -2.7 C 3.65 g/m*3 -2.7 C 0 km/h
649 16-11-2007 09:47:02 -2.9 C 3.6 g/m*3 -2.9 C 0 km/h
650 16-11-2007 09:59:02 -2.7 C 3.65 g/m*3 -2.7 C 0 km/h
Sensor: Nr:Datum:Temp:Abs-Feuchte:Windchill:Wind:
Aussen-T/F 651 16-11-2007 10:11:02 -2.6 C 3.64 g/m*3 -2.6 C 0 km/h
652 16-11-2007 10:23:02 -2.3 C 3.71 g/m*3 -2.3 C 0 km/h
653 16-11-2007 10:35:02 -1.7 C 3.83 g/m*3 -1.7 C 0 km/h
654 16-11-2007 10:47:02 -1.3 C 3.94 g/m*3 -1.3 C 0 km/h
655 16-11-2007 10:59:02 -1 C 3.98 g/m*3 -1 C 0 km/h
656 16-11-2007 11:11:02 -0.7 C 3.97 g/m*3 -0.7 C 0 km/h
657 16-11-2007 11:23:02 -0.7 C 3.83 g/m*3 -0.7 C 0 km/h
658 16-11-2007 11:35:02 -0.5 C 3.88 g/m*3 -0.5 C 0 km/h
659 16-11-2007 11:47:02 -0.3 C 3.94 g/m*3 -0.3 C 0 km/h
660 16-11-2007 11:59:02 -0.2 C 3.87 g/m*3 -0.2 C 0 km/h
661 16-11-2007 12:11:02 0.1 C 3.95 g/m*3 0.1 C 0 km/h
662 16-11-2007 12:23:02 0.5 C 4.01 g/m*3 0.5 C 0 km/h
663 16-11-2007 12:35:02 0.9 C 3.97 g/m*3 0.9 C 0 km/h
664 16-11-2007 12:47:02 1.1 C 3.97 g/m*3 1.1 C 0 km/h
665 16-11-2007 12:59:02 1.8 C 4.06 g/m*3 1.8 C 0 km/h
666 16-11-2007 13:11:02 1.5 C 3.71 g/m*3 1.5 C 0 km/h
667 16-11-2007 13:23:02 1.8 C 3.89 g/m*3 1.8 C 0 km/h
668 16-11-2007 13:35:02 1.9 C 3.81 g/m*3 1.9 C 0 km/h
669 16-11-2007 13:47:02 2.2 C 3.89 g/m*3 2.2 C 0 km/h
670 16-11-2007 13:59:02 2.7 C 4.02 g/m*3 2.7 C 0 km/h
671 16-11-2007 14:11:02 2.7 C 3.96 g/m*3 2.7 C 0 km/h
672 16-11-2007 14:23:02 2.6 C 3.88 g/m*3 2.6 C 0 km/h
673 16-11-2007 14:35:02 3.3 C 4.06 g/m*3 3.3 C 0 km/h
674 16-11-2007 14:47:02 3.3 C 3.82 g/m*3 3.3 C 0 km/h
675 16-11-2007 14:59:02 3.2 C 3.92 g/m*3 3.2 C 0 km/h
Sensor: Nr:Datum:Temp:Abs-Feuchte:Windchill:Wind:
Aussen-T/F 676 16-11-2007 15:11:02 3 C 3.81 g/m*3 3 C 0 km/h
677 16-11-2007 15:23:02 2.9 C 3.9 g/m*3 2.9 C 0 km/h
678 16-11-2007 15:35:02 2.7 C 3.9 g/m*3 2.7 C 0 km/h
679 16-11-2007 15:47:02 2.5 C 3.97 g/m*3 2.5 C 0 km/h
680 16-11-2007 15:59:02 2.5 C 4.02 g/m*3 2.5 C 0 km/h
681 16-11-2007 16:11:02 2.3 C 4.03 g/m*3 2.3 C 0 km/h
682 16-11-2007 16:23:02 2.1 C 4.03 g/m*3 2.1 C 0 km/h
683 16-11-2007 16:35:02 2 C 4.06 g/m*3 2 C 0 km/h
684 16-11-2007 16:47:03 1.6 C 4.06 g/m*3 1.6 C 0 km/h
685 16-11-2007 16:59:03 1.5 C 4.08 g/m*3 1.5 C 0 km/h
686 16-11-2007 17:11:02 1.5 C 4.08 g/m*3 1.5 C 0 km/h
687 16-11-2007 17:23:02 1.4 C 4.11 g/m*3 1.4 C 0 km/h
688 16-11-2007 17:35:02 1.4 C 4.11 g/m*3 1.4 C 0 km/h
689 16-11-2007 17:47:02 1.3 C 4.08 g/m*3 1.3 C 0 km/h
690 16-11-2007 17:59:02 1.2 C 4.05 g/m*3 1.2 C 0 km/h
691 16-11-2007 18:11:02 1.1 C 4.08 g/m*3 1.1 C 0 km/h
692 16-11-2007 18:23:02 1.1 C 4.08 g/m*3 1.1 C 0 km/h
693 16-11-2007 18:35:03 1 C 4.05 g/m*3 1 C 0 km/h
694 16-11-2007 18:47:03 1 C 4.1 g/m*3 1 C 0 km/h
695 16-11-2007 18:59:03 1 C 4.1 g/m*3 1 C 0 km/h
696 16-11-2007 19:11:02 0.9 C 4.12 g/m*3 0.9 C 0 km/h
697 16-11-2007 19:23:03 0.9 C 4.12 g/m*3 0.9 C 0 km/h
698 16-11-2007 19:35:03 0.9 C 4.12 g/m*3 0.9 C 0 km/h
699 16-11-2007 19:47:03 0.7 C 4.07 g/m*3 0.7 C 0 km/h
700 16-11-2007 19:59:03 0.7 C 4.12 g/m*3 0.7 C 0 km/h
Sensor: Nr:Datum:Temp:Abs-Feuchte:Windchill:Wind:
Aussen-T/F 701 16-11-2007 20:11:03 0.7 C 4.12 g/m*3 0.7 C 0 km/h
702 16-11-2007 20:23:02 0.7 C 4.17 g/m*3 0.7 C 0 km/h
703 16-11-2007 20:35:02 0.8 C 4.15 g/m*3 0.8 C 0 km/h
704 16-11-2007 20:47:02 1 C 4.15 g/m*3 1 C 0 km/h
705 16-11-2007 20:59:02 1 C 4.1 g/m*3 1 C 0 km/h
706 16-11-2007 21:11:02 1 C 4.1 g/m*3 1 C 0 km/h
707 16-11-2007 21:23:02 1 C 4.1 g/m*3 1 C 0 km/h
708 16-11-2007 21:35:02 1 C 4.1 g/m*3 1 C 0 km/h
709 16-11-2007 21:47:02 0.9 C 4.12 g/m*3 0.9 C 0 km/h
710 16-11-2007 21:59:02 0.9 C 4.18 g/m*3 0.9 C 0 km/h
711 16-11-2007 22:11:02 0.8 C 4.2 g/m*3 0.8 C 0 km/h
712 16-11-2007 22:23:02 0.8 C 4.2 g/m*3 0.8 C 0 km/h
713 16-11-2007 22:35:02 0.9 C 4.23 g/m*3 0.9 C 0 km/h
714 16-11-2007 22:47:01 0.9 C 4.18 g/m*3 0.9 C 0 km/h
715 16-11-2007 22:59:01 0.9 C 4.18 g/m*3 0.9 C 0 km/h
716 16-11-2007 23:11:01 1 C 4.15 g/m*3 1 C 0 km/h
717 16-11-2007 23:23:01 0.9 C 4.18 g/m*3 0.9 C 0 km/h
718 16-11-2007 23:35:01 0.9 C 4.18 g/m*3 0.9 C 0 km/h
719 16-11-2007 23:47:02 0.9 C 4.18 g/m*3 0.9 C 0 km/h
720 16-11-2007 23:59:02 1 C 4.2 g/m*3 1 C 0 km/h
721 17-11-2007 00:11:02 1 C 4.2 g/m*3 1 C 0 km/h
722 17-11-2007 00:23:03 1 C 4.2 g/m*3 1 C 0 km/h
723 17-11-2007 00:35:02 1.1 C 4.18 g/m*3 1.1 C 0 km/h
724 17-11-2007 00:47:02 1.1 C 4.18 g/m*3 1.1 C 0 km/h
725 17-11-2007 00:59:02 1.1 C 4.18 g/m*3 1.1 C 0 km/h
Sensor: Nr:Datum:Temp:Abs-Feuchte:Windchill:Wind:
Aussen-T/F 726 17-11-2007 01:11:02 1.2 C 4.21 g/m*3 1.2 C 0 km/h
727 17-11-2007 01:23:01 1.2 C 4.21 g/m*3 1.2 C 0 km/h
728 17-11-2007 01:35:01 1.3 C 4.19 g/m*3 1.3 C 0 km/h
729 17-11-2007 01:47:02 1.4 C 4.21 g/m*3 1.4 C 0 km/h
730 17-11-2007 01:59:02 1.4 C 4.21 g/m*3 1.4 C 0 km/h
731 17-11-2007 02:11:02 1.4 C 4.16 g/m*3 1.4 C 0 km/h
732 17-11-2007 02:23:02 1.5 C 4.14 g/m*3 1.5 C 0 km/h
733 17-11-2007 02:35:02 1.5 C 4.14 g/m*3 1.5 C 0 km/h
734 17-11-2007 02:48:03 1.5 C 4.14 g/m*3 1.5 C 0 km/h
735 17-11-2007 03:00:04 1.5 C 4.19 g/m*3 1.5 C 0 km/h
736 17-11-2007 03:12:04 1.5 C 4.19 g/m*3 1.5 C 0 km/h
737 17-11-2007 03:24:04 1.6 C 4.16 g/m*3 1.6 C 0 km/h
738 17-11-2007 03:36:02 1.6 C 4.22 g/m*3 1.6 C 0 km/h
739 17-11-2007 03:48:02 1.7 C 4.14 g/m*3 1.7 C 0 km/h
740 17-11-2007 04:00:02 1.7 C 4.19 g/m*3 1.7 C 0 km/h
741 17-11-2007 04:12:02 1.7 C 4.14 g/m*3 1.7 C 0 km/h
742 17-11-2007 04:24:02 1.7 C 4.19 g/m*3 1.7 C 0 km/h
743 17-11-2007 04:36:02 1.7 C 4.19 g/m*3 1.7 C 0 km/h
744 17-11-2007 04:48:02 1.7 C 4.19 g/m*3 1.7 C 0 km/h
745 17-11-2007 05:00:02 1.9 C 4.3 g/m*3 1.9 C 0 km/h
746 17-11-2007 05:12:01 1.9 C 4.3 g/m*3 1.9 C 0 km/h
747 17-11-2007 05:24:01 1.9 C 4.25 g/m*3 1.9 C 0 km/h
748 17-11-2007 05:36:01 1.8 C 4.28 g/m*3 1.8 C 0 km/h
749 17-11-2007 05:48:02 1.8 C 4.28 g/m*3 1.8 C 0 km/h
750 17-11-2007 06:00:02 1.9 C 4.3 g/m*3 1.9 C 0 km/h
Sensor: Nr:Datum:Temp:Abs-Feuchte:Windchill:Wind:
Aussen-T/F 751 17-11-2007 06:12:02 1.9 C 4.3 g/m*3 1.9 C 0 km/h
752 17-11-2007 06:24:02 1.9 C 4.36 g/m*3 1.9 C 0 km/h
753 17-11-2007 06:36:02 1.9 C 4.36 g/m*3 1.9 C 0 km/h
754 17-11-2007 06:48:03 1.9 C 4.36 g/m*3 1.9 C 0 km/h
755 17-11-2007 07:00:03 1.9 C 4.36 g/m*3 1.9 C 0 km/h
756 17-11-2007 07:12:02 1.9 C 4.36 g/m*3 1.9 C 0 km/h
757 17-11-2007 07:24:02 1.9 C 4.36 g/m*3 1.9 C 0 km/h
758 17-11-2007 07:36:02 1.9 C 4.36 g/m*3 1.9 C 0 km/h
759 17-11-2007 07:48:02 1.9 C 4.36 g/m*3 1.9 C 0 km/h
760 17-11-2007 08:00:02 2 C 4.39 g/m*3 2 C 0 km/h
761 17-11-2007 08:12:02 2 C 4.39 g/m*3 2 C 0 km/h
762 17-11-2007 08:24:02 2.1 C 4.42 g/m*3 2.1 C 0 km/h
763 17-11-2007 08:36:02 2.2 C 4.45 g/m*3 2.2 C 0 km/h
764 17-11-2007 08:48:03 2.2 C 4.45 g/m*3 2.2 C 0 km/h
765 17-11-2007 09:00:03 2.2 C 4.45 g/m*3 2.2 C 0 km/h
766 17-11-2007 09:12:02 2.3 C 4.48 g/m*3 2.3 C 0 km/h
767 17-11-2007 09:24:02 2.3 C 4.42 g/m*3 2.3 C 0 km/h
768 17-11-2007 09:36:02 2.4 C 4.4 g/m*3 2.4 C 0 km/h
769 17-11-2007 09:48:02 2.6 C 4.46 g/m*3 2.6 C 0 km/h
770 17-11-2007 10:00:02 2.7 C 4.49 g/m*3 2.7 C 0 km/h
771 17-11-2007 10:12:02 2.7 C 4.49 g/m*3 2.7 C 0 km/h
772 17-11-2007 10:24:02 3 C 4.46 g/m*3 3 C 0 km/h
773 17-11-2007 10:36:02 3.1 C 4.43 g/m*3 3.1 C 0 km/h
774 17-11-2007 10:48:02 3.2 C 4.4 g/m*3 3.2 C 0 km/h
775 17-11-2007 11:00:02 3.3 C 4.43 g/m*3 3.3 C 0 km/h
Sensor: Nr:Datum:Temp:Abs-Feuchte:Windchill:Wind:
Aussen-T/F 776 17-11-2007 11:12:02 3.4 C 4.46 g/m*3 3.4 C 0 km/h
777 17-11-2007 11:24:02 3.7 C 4.49 g/m*3 3.7 C 0 km/h
778 17-11-2007 11:36:02 4.1 C 4.48 g/m*3 4.1 C 0 km/h
779 17-11-2007 11:48:03 4.2 C 4.51 g/m*3 4.2 C 0 km/h
780 17-11-2007 12:00:03 4.2 C 4.45 g/m*3 4.2 C 0 km/h
781 17-11-2007 12:12:03 4.4 C 4.51 g/m*3 4.4 C 0 km/h
782 17-11-2007 12:24:03 4.7 C 4.6 g/m*3 4.7 C 0 km/h
783 17-11-2007 12:36:03 5.1 C 4.65 g/m*3 5.1 C 0 km/h
784 17-11-2007 12:48:02 5.4 C 4.67 g/m*3 5.4 C 0 km/h
785 17-11-2007 13:00:02 5.5 C 4.71 g/m*3 5.5 C 0 km/h
786 17-11-2007 13:12:02 5.5 C 4.64 g/m*3 5.5 C 0 km/h
787 17-11-2007 13:24:02 5.6 C 4.81 g/m*3 5.6 C 0 km/h
788 17-11-2007 13:36:02 5.7 C 4.77 g/m*3 5.7 C 0 km/h
789 17-11-2007 13:48:02 6 C 4.86 g/m*3 6 C 0 km/h
790 17-11-2007 14:00:02 6.3 C 4.96 g/m*3 6.3 C 0 km/h
791 17-11-2007 14:12:02 6.6 C 4.98 g/m*3 6.6 C 0 km/h
792 17-11-2007 14:24:02 6.6 C 4.98 g/m*3 6.6 C 0 km/h
793 17-11-2007 14:36:02 6.5 C 4.95 g/m*3 6.5 C 0 km/h
794 17-11-2007 14:48:03 6.3 C 4.96 g/m*3 6.3 C 0 km/h
795 17-11-2007 15:00:03 6.3 C 5.03 g/m*3 6.3 C 0 km/h
796 17-11-2007 15:12:03 6.3 C 5.03 g/m*3 6.3 C 0 km/h
797 17-11-2007 15:24:03 6.2 C 5 g/m*3 6.2 C 0 km/h
798 17-11-2007 15:36:03 6.2 C 5.07 g/m*3 6.2 C 0 km/h
799 17-11-2007 15:48:01 6 C 5.01 g/m*3 6 C 0 km/h
800 17-11-2007 16:00:01 5.9 C 5.05 g/m*3 5.9 C 0 km/h
Sensor: Nr:Datum:Temp:Abs-Feuchte:Windchill:Wind:
Aussen-T/F 801 17-11-2007 16:12:01 5.6 C 5.02 g/m*3 5.6 C 0 km/h
802 17-11-2007 16:24:01 5.4 C 5.02 g/m*3 5.4 C 0 km/h
803 17-11-2007 16:36:01 5.3 C 5.13 g/m*3 5.3 C 0 km/h
804 17-11-2007 16:48:03 5 C 5.1 g/m*3 5 C 0 km/h
805 17-11-2007 17:00:03 4.8 C 5.16 g/m*3 4.8 C 0 km/h
806 17-11-2007 17:12:03 4.7 C 5.13 g/m*3 4.7 C 0 km/h
807 17-11-2007 17:24:02 4.6 C 5.16 g/m*3 4.6 C 0 km/h
808 17-11-2007 17:36:02 4.5 C 5.13 g/m*3 4.5 C 0 km/h
809 17-11-2007 17:48:02 4.4 C 5.16 g/m*3 4.4 C 0 km/h
810 17-11-2007 18:00:02 4.3 C 5.12 g/m*3 4.3 C 0 km/h
811 17-11-2007 18:12:02 4.3 C 5.19 g/m*3 4.3 C 0 km/h
812 17-11-2007 18:24:01 4.2 C 5.15 g/m*3 4.2 C 0 km/h
813 17-11-2007 18:36:02 4.2 C 5.15 g/m*3 4.2 C 0 km/h
814 17-11-2007 18:48:02 4.2 C 5.15 g/m*3 4.2 C 0 km/h
815 17-11-2007 19:00:02 4.1 C 5.12 g/m*3 4.1 C 0 km/h
816 17-11-2007 19:12:02 4 C 5.15 g/m*3 4 C 0 km/h
817 17-11-2007 19:24:02 4 C 5.15 g/m*3 4 C 0 km/h
818 17-11-2007 19:36:02 4 C 5.15 g/m*3 4 C 0 km/h
819 17-11-2007 19:48:02 4.3 C 5.25 g/m*3 4.3 C 0 km/h
820 17-11-2007 20:00:02 4.1 C 5.18 g/m*3 4.1 C 0 km/h
821 17-11-2007 20:12:02 4.3 C 5.25 g/m*3 4.3 C 0 km/h
822 17-11-2007 20:24:02 4 C 5.15 g/m*3 4 C 0 km/h
823 17-11-2007 20:36:02 4 C 5.15 g/m*3 4 C 0 km/h
824 17-11-2007 20:48:02 3.9 C 5.18 g/m*3 3.9 C 0 km/h
825 17-11-2007 21:00:02 4.4 C 5.35 g/m*3 4.4 C 0 km/h
Sensor: Nr:Datum:Temp:Abs-Feuchte:Windchill:Wind:
Aussen-T/F 826 17-11-2007 21:12:02 3.8 C 5.21 g/m*3 3.8 C 0 km/h
827 17-11-2007 21:24:03 3.7 C 5.17 g/m*3 3.7 C 0 km/h
828 17-11-2007 21:36:03 3.7 C 5.17 g/m*3 3.7 C 0 km/h
829 17-11-2007 21:48:02 3.6 C 5.14 g/m*3 3.6 C 0 km/h
830 17-11-2007 22:00:02 3.6 C 5.14 g/m*3 3.6 C 0 km/h
831 17-11-2007 22:12:02 3.6 C 5.14 g/m*3 3.6 C 0 km/h
832 17-11-2007 22:24:02 3.5 C 5.16 g/m*3 3.5 C 0 km/h
833 17-11-2007 22:36:02 3.5 C 5.16 g/m*3 3.5 C 0 km/h
834 17-11-2007 22:48:02 3.5 C 5.16 g/m*3 3.5 C 0 km/h
835 17-11-2007 23:00:02 3.5 C 5.16 g/m*3 3.5 C 0 km/h
836 17-11-2007 23:12:01 3.4 C 5.13 g/m*3 3.4 C 0 km/h
837 17-11-2007 23:24:02 3.4 C 5.13 g/m*3 3.4 C 0 km/h
838 17-11-2007 23:36:02 3.4 C 5.19 g/m*3 3.4 C 0 km/h
839 17-11-2007 23:48:02 3.3 C 5.1 g/m*3 3.3 C 0 km/h

Legende:
   Min
   Max


Maximal/Minimal-Werte vom 17.04.2019 - 19.05.2019

Sensor Min Max Avg
Temp
(Aussen-T/F)
2.2 °C
13-05-2019  06:50:00
26.6 °C
24-04-2019  17:05:00
11.51 °C

Die Daten stammen von einer Davis Vantage Pro 2 Wetter-Station und werden unter Linux mit der Software wview2wettercgi und aufbereitet. Alle Angaben erfolgen ohne Gewähr für ihre Vollständigkeit oder Richtigkeit.
Kontakt: Rainer Krienke krienke@uni-koblenz.de . Meine Webseiten an der Uni Koblenz oder privat.
Version: $Revision: 0.78 $